createdAt,value
2019-02-23T00:00:26.983Z,1011.24
2019-02-23T00:01:26.973Z,1011.23
2019-02-23T00:02:26.966Z,1011.22
2019-02-23T00:03:26.959Z,1011.23
2019-02-23T00:04:26.947Z,1011.28
2019-02-23T00:05:26.959Z,1011.3
2019-02-23T00:06:29.987Z,1011.32
2019-02-23T00:07:26.925Z,1011.3
2019-02-23T00:08:26.922Z,1011.37
2019-02-23T00:09:26.903Z,1011.34
2019-02-23T00:10:26.897Z,1011.31
2019-02-23T00:11:26.891Z,1011.35
2019-02-23T00:12:26.897Z,1011.36
2019-02-23T00:13:26.888Z,1011.38
2019-02-23T00:14:26.869Z,1011.38
2019-02-23T00:15:26.851Z,1011.42
2019-02-23T00:16:26.840Z,1011.48
2019-02-23T00:17:26.841Z,1011.5
2019-02-23T00:18:26.826Z,1011.49
2019-02-23T00:19:26.818Z,1011.5
2019-02-23T00:20:26.806Z,1011.51
2019-02-23T00:21:26.801Z,1011.52
2019-02-23T00:22:26.792Z,1011.52
2019-02-23T00:23:26.783Z,1011.51
2019-02-23T00:24:26.791Z,1011.56
2019-02-23T00:25:26.763Z,1011.54
2019-02-23T00:26:26.754Z,1011.54
2019-02-23T00:27:26.746Z,1011.54
2019-02-23T00:28:26.738Z,1011.53
2019-02-23T00:29:26.732Z,1011.52
2019-02-23T00:30:26.718Z,1011.53
2019-02-23T00:31:26.712Z,1011.53
2019-02-23T00:32:26.706Z,1011.51
2019-02-23T00:33:26.694Z,1011.55
2019-02-23T00:34:26.686Z,1011.58
2019-02-23T00:35:26.680Z,1011.54
2019-02-23T00:36:26.681Z,1011.53
2019-02-23T00:37:26.658Z,1011.53
2019-02-23T00:38:26.661Z,1011.51
2019-02-23T00:39:26.646Z,1011.56
2019-02-23T00:40:26.634Z,1011.53
2019-02-23T00:41:26.629Z,1011.5
2019-02-23T00:42:26.613Z,1011.58
2019-02-23T00:43:26.608Z,1011.54
2019-02-23T00:44:26.599Z,1011.59
2019-02-23T00:45:26.598Z,1011.59
2019-02-23T00:46:26.583Z,1011.61
2019-02-23T00:47:26.573Z,1011.62
2019-02-23T00:48:26.565Z,1011.61
2019-02-23T00:49:35.727Z,1011.58
2019-02-23T00:50:26.582Z,1011.6
2019-02-23T00:51:26.545Z,1011.54
2019-02-23T00:52:26.526Z,1011.59
2019-02-23T00:53:26.517Z,1011.55
2019-02-23T00:54:26.510Z,1011.54
2019-02-23T00:55:26.503Z,1011.57
2019-02-23T00:56:26.493Z,1011.54
2019-02-23T00:57:26.481Z,1011.53
2019-02-23T00:58:26.472Z,1011.5
2019-02-23T00:59:26.467Z,1011.53
2019-02-23T01:00:26.458Z,1011.51
2019-02-23T01:01:26.446Z,1011.48
2019-02-23T01:02:26.439Z,1011.49
2019-02-23T01:03:26.439Z,1011.45
2019-02-23T01:04:26.420Z,1011.43
2019-02-23T01:05:26.411Z,1011.43
2019-02-23T01:06:26.408Z,1011.46
2019-02-23T01:07:26.394Z,1011.43
2019-02-23T01:08:26.382Z,1011.43
2019-02-23T01:09:26.377Z,1011.45
2019-02-23T01:10:26.364Z,1011.47
2019-02-23T01:11:26.361Z,1011.44
2019-02-23T01:12:26.347Z,1011.42
2019-02-23T01:13:26.339Z,1011.45
2019-02-23T01:14:26.331Z,1011.47
2019-02-23T01:15:26.320Z,1011.41
2019-02-23T01:16:26.312Z,1011.42
2019-02-23T01:17:26.301Z,1011.42
2019-02-23T01:18:26.298Z,1011.47
2019-02-23T01:19:26.301Z,1011.48
2019-02-23T01:20:26.274Z,1011.45
2019-02-23T01:21:26.275Z,1011.49
2019-02-23T01:22:26.257Z,1011.45
2019-02-23T01:23:26.251Z,1011.44
2019-02-23T01:24:26.239Z,1011.37
2019-02-23T01:25:26.230Z,1011.41
2019-02-23T01:26:26.224Z,1011.36
2019-02-23T01:27:26.225Z,1011.37
2019-02-23T01:28:26.211Z,1011.4
2019-02-23T01:29:26.193Z,1011.35
2019-02-23T01:30:26.186Z,1011.34
2019-02-23T01:31:26.176Z,1011.33
2019-02-23T01:32:26.176Z,1011.36
2019-02-23T01:33:26.154Z,1011.38
2019-02-23T01:34:26.157Z,1011.4
2019-02-23T01:35:26.139Z,1011.41
2019-02-23T01:36:26.128Z,1011.41
2019-02-23T01:37:26.120Z,1011.43
2019-02-23T01:38:26.110Z,1011.45
2019-02-23T01:39:26.105Z,1011.45
2019-02-23T01:40:26.101Z,1011.42
2019-02-23T01:41:26.089Z,1011.41
2019-02-23T01:42:26.079Z,1011.4
2019-02-23T01:43:26.066Z,1011.39
2019-02-23T01:44:26.065Z,1011.35
2019-02-23T01:45:26.048Z,1011.33
2019-02-23T01:46:26.042Z,1011.3
2019-02-23T01:47:26.037Z,1011.31
2019-02-23T01:48:26.023Z,1011.32
2019-02-23T01:49:26.014Z,1011.35
2019-02-23T01:50:26.011Z,1011.34
2019-02-23T01:51:25.994Z,1011.35
2019-02-23T01:52:25.984Z,1011.3
2019-02-23T01:53:25.976Z,1011.32
2019-02-23T01:54:25.966Z,1011.32
2019-02-23T01:55:25.972Z,1011.35
2019-02-23T01:56:25.946Z,1011.3
2019-02-23T01:57:25.937Z,1011.23
2019-02-23T01:58:25.928Z,1011.26
2019-02-23T01:59:25.927Z,1011.25
2019-02-23T02:00:25.909Z,1011.26
2019-02-23T02:01:25.905Z,1011.25
2019-02-23T02:02:25.890Z,1011.28
2019-02-23T02:03:25.889Z,1011.33
2019-02-23T02:04:25.873Z,1011.29
2019-02-23T02:05:25.862Z,1011.33
2019-02-23T02:06:25.853Z,1011.3
2019-02-23T02:07:25.843Z,1011.35
2019-02-23T02:08:25.831Z,1011.37
2019-02-23T02:09:25.823Z,1011.35
2019-02-23T02:10:25.813Z,1011.35
2019-02-23T02:11:25.811Z,1011.39
2019-02-23T02:12:25.792Z,1011.34
2019-02-23T02:13:25.797Z,1011.34
2019-02-23T02:14:25.776Z,1011.38
2019-02-23T02:15:25.768Z,1011.37
2019-02-23T02:16:25.760Z,1011.44
2019-02-23T02:17:25.754Z,1011.44
2019-02-23T02:18:25.751Z,1011.46
2019-02-23T02:19:25.730Z,1011.43
2019-02-23T02:20:25.723Z,1011.45
2019-02-23T02:21:25.711Z,1011.48
2019-02-23T02:22:25.703Z,1011.48
2019-02-23T02:23:25.688Z,1011.55
2019-02-23T02:24:25.678Z,1011.55
2019-02-23T02:25:25.669Z,1011.58
2019-02-23T02:26:25.664Z,1011.59
2019-02-23T02:27:25.658Z,1011.57
2019-02-23T02:28:25.654Z,1011.55
2019-02-23T02:29:25.647Z,1011.57
2019-02-23T02:30:25.625Z,1011.53
2019-02-23T02:31:25.610Z,1011.57
2019-02-23T02:32:25.599Z,1011.56
2019-02-23T02:33:25.591Z,1011.58
2019-02-23T02:34:25.580Z,1011.56
2019-02-23T02:35:25.665Z,1011.57
2019-02-23T02:36:25.567Z,1011.51
2019-02-23T02:37:25.569Z,1011.55
2019-02-23T02:38:25.540Z,1011.52
2019-02-23T02:39:25.532Z,1011.54
2019-02-23T02:40:25.521Z,1011.57
2019-02-23T02:41:25.514Z,1011.58
2019-02-23T02:42:25.501Z,1011.61
2019-02-23T02:43:25.492Z,1011.61
2019-02-23T02:44:25.480Z,1011.64
2019-02-23T02:45:25.470Z,1011.57
2019-02-23T02:46:25.462Z,1011.59
2019-02-23T02:47:25.458Z,1011.55
2019-02-23T02:48:25.446Z,1011.54
2019-02-23T02:49:25.476Z,1011.56
2019-02-23T02:50:25.438Z,1011.53
2019-02-23T02:51:25.412Z,1011.56
2019-02-23T02:52:25.402Z,1011.55
2019-02-23T02:53:25.392Z,1011.61
2019-02-23T02:54:25.384Z,1011.6
2019-02-23T02:55:25.379Z,1011.65
2019-02-23T02:56:25.360Z,1011.64
2019-02-23T02:57:25.354Z,1011.62
2019-02-23T02:58:25.342Z,1011.62
2019-02-23T02:59:25.344Z,1011.66
2019-02-23T03:00:25.328Z,1011.66
2019-02-23T03:01:25.312Z,1011.73
2019-02-23T03:02:25.301Z,1011.73
2019-02-23T03:03:25.366Z,1011.7
2019-02-23T03:04:25.283Z,1011.79
2019-02-23T03:05:25.288Z,1011.76
2019-02-23T03:06:25.268Z,1011.74
2019-02-23T03:07:25.251Z,1011.76
2019-02-23T03:08:25.240Z,1011.78
2019-02-23T03:09:25.232Z,1011.75
2019-02-23T03:10:25.227Z,1011.74
2019-02-23T03:11:25.211Z,1011.8
2019-02-23T03:12:25.202Z,1011.76
2019-02-23T03:13:25.194Z,1011.73
2019-02-23T03:14:25.182Z,1011.73
2019-02-23T03:15:25.971Z,1011.76
2019-02-23T03:16:25.161Z,1011.76
2019-02-23T03:17:25.151Z,1011.72
2019-02-23T03:18:25.149Z,1011.71
2019-02-23T03:19:25.131Z,1011.72
2019-02-23T03:20:36.150Z,1011.72
2019-02-23T03:21:25.115Z,1011.7
2019-02-23T03:22:25.110Z,1011.69
2019-02-23T03:23:25.093Z,1011.71
2019-02-23T03:24:25.088Z,1011.64
2019-02-23T03:25:25.069Z,1011.67
2019-02-23T03:26:25.060Z,1011.68
2019-02-23T03:27:25.055Z,1011.66
2019-02-23T03:28:25.080Z,1011.65
2019-02-23T03:29:25.032Z,1011.68
2019-02-23T03:30:25.036Z,1011.66
2019-02-23T03:31:25.011Z,1011.7
2019-02-23T03:32:25.004Z,1011.75
2019-02-23T03:33:24.994Z,1011.71
2019-02-23T03:34:24.980Z,1011.72
2019-02-23T03:35:24.979Z,1011.76
2019-02-23T03:36:24.960Z,1011.72
2019-02-23T03:37:24.950Z,1011.75
2019-02-23T03:38:24.939Z,1011.71
2019-02-23T03:39:24.929Z,1011.75
2019-02-23T03:40:24.945Z,1011.82
2019-02-23T03:41:24.911Z,1011.75
2019-02-23T03:42:24.905Z,1011.75
2019-02-23T03:43:24.889Z,1011.75
2019-02-23T03:44:24.876Z,1011.71
2019-02-23T03:45:24.873Z,1011.71
2019-02-23T03:46:24.860Z,1011.73
2019-02-23T03:47:24.850Z,1011.73
2019-02-23T03:48:24.838Z,1011.75
2019-02-23T03:49:24.831Z,1011.78
2019-02-23T03:50:24.818Z,1011.83
2019-02-23T03:51:24.807Z,1011.84
2019-02-23T03:52:24.797Z,1011.88
2019-02-23T03:53:24.786Z,1011.88
2019-02-23T03:54:24.785Z,1011.91
2019-02-23T03:55:24.769Z,1011.9
2019-02-23T03:56:24.758Z,1011.94
2019-02-23T03:57:24.747Z,1011.89
2019-02-23T03:58:24.734Z,1011.88
2019-02-23T03:59:24.727Z,1011.87
2019-02-23T04:00:24.727Z,1011.88
2019-02-23T04:01:24.707Z,1011.86
2019-02-23T04:02:24.693Z,1011.85
2019-02-23T04:03:24.686Z,1011.86
2019-02-23T04:04:24.677Z,1011.78
2019-02-23T04:05:24.666Z,1011.76
2019-02-23T04:06:24.655Z,1011.78
2019-02-23T04:07:24.642Z,1011.8
2019-02-23T04:08:24.634Z,1011.79
2019-02-23T04:09:24.626Z,1011.79
2019-02-23T04:10:24.612Z,1011.76
2019-02-23T04:11:24.604Z,1011.78
2019-02-23T04:12:24.605Z,1011.78
2019-02-23T04:13:24.581Z,1011.81
2019-02-23T04:14:24.573Z,1011.82
2019-02-23T04:15:24.565Z,1011.86
2019-02-23T04:16:24.552Z,1011.84
2019-02-23T04:17:24.541Z,1011.87
2019-02-23T04:18:24.537Z,1011.86
2019-02-23T04:19:24.522Z,1011.92
2019-02-23T04:20:24.512Z,1011.9
2019-02-23T04:21:24.501Z,1011.9
2019-02-23T04:22:24.501Z,1011.87
2019-02-23T04:23:24.488Z,1011.84
2019-02-23T04:24:24.474Z,1011.88
2019-02-23T04:25:24.459Z,1011.87
2019-02-23T04:26:24.450Z,1011.87
2019-02-23T04:27:24.458Z,1011.85
2019-02-23T04:28:24.428Z,1011.91
2019-02-23T04:29:24.416Z,1011.89
2019-02-23T04:30:24.406Z,1011.86
2019-02-23T04:31:24.411Z,1011.83
2019-02-23T04:32:24.391Z,1011.82
2019-02-23T04:33:24.376Z,1011.8
2019-02-23T04:34:24.370Z,1011.82
2019-02-23T04:35:24.356Z,1011.84
2019-02-23T04:36:24.348Z,1011.84
2019-02-23T04:37:24.336Z,1011.86
2019-02-23T04:38:24.328Z,1011.79
2019-02-23T04:39:24.317Z,1011.8
2019-02-23T04:40:24.310Z,1011.82
2019-02-23T04:41:24.345Z,1011.84
2019-02-23T04:42:24.284Z,1011.78
2019-02-23T04:43:24.273Z,1011.81
2019-02-23T04:44:24.265Z,1011.78
2019-02-23T04:45:24.265Z,1011.75
2019-02-23T04:46:24.251Z,1011.73
2019-02-23T04:47:24.251Z,1011.68
2019-02-23T04:48:24.230Z,1011.6
2019-02-23T04:49:25.914Z,1011.6
2019-02-23T04:50:24.206Z,1011.62
2019-02-23T04:51:24.206Z,1011.57
2019-02-23T04:52:24.267Z,1011.56
2019-02-23T04:53:24.174Z,1011.59
2019-02-23T04:54:24.176Z,1011.54
2019-02-23T04:55:24.157Z,1011.55
2019-02-23T04:56:24.155Z,1011.53
2019-02-23T04:57:24.132Z,1011.54
2019-02-23T04:58:24.124Z,1011.51
2019-02-23T04:59:24.118Z,1011.49
2019-02-23T05:00:24.120Z,1011.45
2019-02-23T05:01:24.108Z,1011.49
2019-02-23T05:02:24.083Z,1011.53
2019-02-23T05:03:24.087Z,1011.54
2019-02-23T05:04:24.068Z,1011.56
2019-02-23T05:05:24.054Z,1011.58
2019-02-23T05:06:24.053Z,1011.56
2019-02-23T05:07:24.045Z,1011.53
2019-02-23T05:08:24.044Z,1011.54
2019-02-23T05:09:24.023Z,1011.57
2019-02-23T05:10:24.025Z,1011.59
2019-02-23T05:11:24.004Z,1011.57
2019-02-23T05:12:24.000Z,1011.58
2019-02-23T05:13:23.995Z,1011.58
2019-02-23T05:14:23.968Z,1011.59
2019-02-23T05:15:23.976Z,1011.56
2019-02-23T05:16:23.947Z,1011.55
2019-02-23T05:17:23.935Z,1011.56
2019-02-23T05:18:23.934Z,1011.59
2019-02-23T05:19:23.943Z,1011.55
2019-02-23T05:20:23.906Z,1011.56
2019-02-23T05:21:26.597Z,1011.54
2019-02-23T05:22:23.902Z,1011.54
2019-02-23T05:23:23.885Z,1011.58
2019-02-23T05:24:23.883Z,1011.57
2019-02-23T05:25:23.998Z,1011.47
2019-02-23T05:26:23.838Z,1011.44
2019-02-23T05:27:23.826Z,1011.42
2019-02-23T05:28:23.831Z,1011.39
2019-02-23T05:29:23.820Z,1011.31
2019-02-23T05:30:23.799Z,1011.3
2019-02-23T05:31:23.804Z,1011.34
2019-02-23T05:32:23.789Z,1011.32
2019-02-23T05:33:23.763Z,1011.31
2019-02-23T05:34:23.762Z,1011.32
2019-02-23T05:35:23.762Z,1011.26
2019-02-23T05:36:23.736Z,1011.32
2019-02-23T05:37:23.741Z,1011.28
2019-02-23T05:38:23.729Z,1011.36
2019-02-23T05:39:23.720Z,1011.37
2019-02-23T05:40:23.711Z,1011.45
2019-02-23T05:41:24.035Z,1011.44
2019-02-23T05:42:23.699Z,1011.51
2019-02-23T05:43:23.680Z,1011.52
2019-02-23T05:44:23.670Z,1011.61
2019-02-23T05:45:23.640Z,1011.57
2019-02-23T05:46:23.645Z,1011.58
2019-02-23T05:47:23.643Z,1011.54
2019-02-23T05:48:23.623Z,1011.49
2019-02-23T05:49:23.622Z,1011.54
2019-02-23T05:50:23.613Z,1011.54
2019-02-23T05:51:23.585Z,1011.5
2019-02-23T05:52:23.597Z,1011.49
2019-02-23T05:53:23.576Z,1011.49
2019-02-23T05:54:23.551Z,1011.46
2019-02-23T05:55:23.533Z,1011.48
2019-02-23T05:56:23.533Z,1011.48
2019-02-23T05:57:23.516Z,1011.42
2019-02-23T05:58:23.509Z,1011.39
2019-02-23T05:59:23.489Z,1011.38
2019-02-23T06:00:23.477Z,1011.36
2019-02-23T06:01:23.488Z,1011.4
2019-02-23T06:02:23.457Z,1011.39
2019-02-23T06:03:23.451Z,1011.4
2019-02-23T06:04:23.462Z,1011.43
2019-02-23T06:05:23.422Z,1011.41
2019-02-23T06:06:23.415Z,1011.44
2019-02-23T06:07:25.259Z,1011.45
2019-02-23T06:08:23.441Z,1011.45
2019-02-23T06:09:23.382Z,1011.45
2019-02-23T06:10:23.370Z,1011.47
2019-02-23T06:11:23.359Z,1011.44
2019-02-23T06:12:23.353Z,1011.47
2019-02-23T06:13:23.338Z,1011.5
2019-02-23T06:14:23.324Z,1011.48
2019-02-23T06:15:23.321Z,1011.5
2019-02-23T06:16:23.309Z,1011.5
2019-02-23T06:17:23.294Z,1011.47
2019-02-23T06:18:23.287Z,1011.42
2019-02-23T06:19:23.275Z,1011.46
2019-02-23T06:20:23.263Z,1011.43
2019-02-23T06:21:23.253Z,1011.47
2019-02-23T06:22:23.241Z,1011.43
2019-02-23T06:23:23.232Z,1011.45
2019-02-23T06:24:23.226Z,1011.46
2019-02-23T06:25:23.207Z,1011.43
2019-02-23T06:26:23.200Z,1011.5
2019-02-23T06:27:23.187Z,1011.53
2019-02-23T06:28:23.244Z,1011.5
2019-02-23T06:29:23.167Z,1011.56
2019-02-23T06:30:23.155Z,1011.49
2019-02-23T06:31:23.154Z,1011.51
2019-02-23T06:32:23.132Z,1011.44
2019-02-23T06:33:23.130Z,1011.44
2019-02-23T06:34:23.108Z,1011.49
2019-02-23T06:35:23.102Z,1011.5
2019-02-23T06:36:23.088Z,1011.5
2019-02-23T06:37:23.080Z,1011.52
2019-02-23T06:38:23.066Z,1011.56
2019-02-23T06:39:23.059Z,1011.61
2019-02-23T06:40:23.068Z,1011.66
2019-02-23T06:41:23.033Z,1011.64
2019-02-23T06:42:23.023Z,1011.65
2019-02-23T06:43:23.013Z,1011.68
2019-02-23T06:44:23.003Z,1011.69
2019-02-23T06:45:22.995Z,1011.73
2019-02-23T06:46:22.987Z,1011.77
2019-02-23T06:47:22.973Z,1011.76
2019-02-23T06:48:22.993Z,1011.71
2019-02-23T06:49:22.946Z,1011.72
2019-02-23T06:50:22.957Z,1011.72
2019-02-23T06:51:22.926Z,1011.72
2019-02-23T06:52:22.916Z,1011.78
2019-02-23T06:53:22.903Z,1011.81
2019-02-23T06:54:22.893Z,1011.82
2019-02-23T06:55:22.889Z,1011.85
2019-02-23T06:56:22.876Z,1011.79
2019-02-23T06:57:22.861Z,1011.81
2019-02-23T06:58:22.855Z,1011.73
2019-02-23T06:59:22.842Z,1011.73
2019-02-23T07:00:22.826Z,1011.77
2019-02-23T07:01:22.826Z,1011.75
2019-02-23T07:02:22.806Z,1011.79
2019-02-23T07:03:22.797Z,1011.81
2019-02-23T07:04:22.786Z,1011.84
2019-02-23T07:05:22.782Z,1011.81
2019-02-23T07:06:22.771Z,1011.83
2019-02-23T07:07:22.770Z,1011.76
2019-02-23T07:08:22.741Z,1011.75
2019-02-23T07:09:22.730Z,1011.78
2019-02-23T07:10:22.720Z,1011.79
2019-02-23T07:11:22.712Z,1011.79
2019-02-23T07:12:22.701Z,1011.83
2019-02-23T07:13:22.695Z,1011.85
2019-02-23T07:14:22.681Z,1011.93
2019-02-23T07:15:22.673Z,1011.97
2019-02-23T07:16:22.664Z,1011.92
2019-02-23T07:17:22.653Z,1011.94
2019-02-23T07:18:22.635Z,1011.99
2019-02-23T07:19:22.629Z,1011.99
2019-02-23T07:20:22.617Z,1012.02
2019-02-23T07:21:22.608Z,1012.03
2019-02-23T07:22:22.593Z,1012.01
2019-02-23T07:23:22.584Z,1012.05
2019-02-23T07:24:22.578Z,1012.04
2019-02-23T07:25:22.566Z,1012
2019-02-23T07:26:22.552Z,1011.98
2019-02-23T07:27:22.548Z,1011.93
2019-02-23T07:28:22.530Z,1012.01
2019-02-23T07:29:22.520Z,1011.98
2019-02-23T07:30:22.520Z,1011.96
2019-02-23T07:31:22.505Z,1011.93
2019-02-23T07:32:22.493Z,1011.9
2019-02-23T07:33:32.277Z,1011.9
2019-02-23T07:34:22.475Z,1011.82
2019-02-23T07:35:22.466Z,1011.84
2019-02-23T07:36:22.457Z,1011.84
2019-02-23T07:37:22.456Z,1011.85
2019-02-23T07:38:22.439Z,1011.85
2019-02-23T07:39:22.440Z,1011.86
2019-02-23T07:40:22.440Z,1011.89
2019-02-23T07:41:22.421Z,1011.93
2019-02-23T07:42:22.416Z,1011.9
2019-02-23T07:43:22.421Z,1011.92
2019-02-23T07:44:22.402Z,1011.94
2019-02-23T07:45:22.400Z,1011.96
2019-02-23T07:46:22.397Z,1011.92
2019-02-23T07:47:22.388Z,1011.91
2019-02-23T07:48:22.468Z,1011.97
2019-02-23T07:49:22.385Z,1011.95
2019-02-23T07:50:22.377Z,1011.94
2019-02-23T07:51:22.375Z,1011.95
2019-02-23T07:52:26.176Z,1011.95
2019-02-23T07:53:22.367Z,1011.87
2019-02-23T07:54:22.364Z,1011.84
2019-02-23T07:55:22.360Z,1011.82
2019-02-23T07:56:22.367Z,1011.8
2019-02-23T07:57:22.358Z,1011.72
2019-02-23T07:58:22.355Z,1011.71
2019-02-23T07:59:22.351Z,1011.69
2019-02-23T08:00:22.357Z,1011.63
2019-02-23T08:01:22.348Z,1011.66
2019-02-23T08:02:22.346Z,1011.65
2019-02-23T08:03:22.346Z,1011.66
2019-02-23T08:04:22.340Z,1011.73
2019-02-23T08:05:22.344Z,1011.66
2019-02-23T08:06:22.341Z,1011.7
2019-02-23T08:07:22.342Z,1011.71
2019-02-23T08:08:22.338Z,1011.73
2019-02-23T08:09:22.338Z,1011.68
2019-02-23T08:10:22.341Z,1011.69
2019-02-23T08:11:22.332Z,1011.62
2019-02-23T08:12:22.345Z,1011.67
2019-02-23T08:13:22.333Z,1011.71
2019-02-23T08:14:22.417Z,1011.66
2019-02-23T08:15:22.330Z,1011.6
2019-02-23T08:16:22.328Z,1011.6
2019-02-23T08:17:22.337Z,1011.56
2019-02-23T08:18:22.334Z,1011.58
2019-02-23T08:19:22.326Z,1011.54
2019-02-23T08:20:22.945Z,1011.58
2019-02-23T08:21:22.329Z,1011.59
2019-02-23T08:22:22.324Z,1011.55
2019-02-23T08:23:22.326Z,1011.57
2019-02-23T08:24:22.323Z,1011.6
2019-02-23T08:25:22.323Z,1011.63
2019-02-23T08:26:22.322Z,1011.73
2019-02-23T08:27:22.322Z,1011.66
2019-02-23T08:28:22.324Z,1011.63
2019-02-23T08:29:22.322Z,1011.63
2019-02-23T08:30:22.334Z,1011.66
2019-02-23T08:31:22.323Z,1011.68
2019-02-23T08:32:22.330Z,1011.62
2019-02-23T08:33:22.321Z,1011.62
2019-02-23T08:34:22.322Z,1011.63
2019-02-23T08:35:22.329Z,1011.64
2019-02-23T08:36:23.745Z,1011.67
2019-02-23T08:37:22.327Z,1011.66
2019-02-23T08:38:22.371Z,1011.66
2019-02-23T08:39:22.319Z,1011.62
2019-02-23T08:40:22.329Z,1011.62
2019-02-23T08:41:22.332Z,1011.63
2019-02-23T08:42:22.322Z,1011.63
2019-02-23T08:43:22.323Z,1011.66
2019-02-23T08:44:22.319Z,1011.66
2019-02-23T08:45:22.317Z,1011.68
2019-02-23T08:46:22.311Z,1011.74
2019-02-23T08:47:22.306Z,1011.76
2019-02-23T08:48:22.306Z,1011.69
2019-02-23T08:49:22.302Z,1011.73
2019-02-23T08:50:22.297Z,1011.74
2019-02-23T08:51:22.295Z,1011.77
2019-02-23T08:52:22.294Z,1011.79
2019-02-23T08:53:22.289Z,1011.74
2019-02-23T08:54:22.290Z,1011.7
2019-02-23T08:55:22.283Z,1011.7
2019-02-23T08:56:22.275Z,1011.75
2019-02-23T08:57:22.280Z,1011.81
2019-02-23T08:58:22.282Z,1011.85
2019-02-23T08:59:22.272Z,1011.81
2019-02-23T09:00:22.256Z,1011.82
2019-02-23T09:01:22.258Z,1011.84
2019-02-23T09:02:22.341Z,1011.82
2019-02-23T09:03:23.043Z,1011.82
2019-02-23T09:04:22.238Z,1011.88
2019-02-23T09:05:22.232Z,1011.85
2019-02-23T09:06:22.232Z,1011.89
2019-02-23T09:07:22.224Z,1011.9
2019-02-23T09:08:22.274Z,1011.88
2019-02-23T09:09:22.211Z,1011.93
2019-02-23T09:10:22.218Z,1011.93
2019-02-23T09:11:22.199Z,1011.9
2019-02-23T09:12:22.195Z,1011.9
2019-02-23T09:13:22.208Z,1011.9
2019-02-23T09:14:22.182Z,1011.93
2019-02-23T09:15:22.454Z,1012.03
2019-02-23T09:16:22.169Z,1012.07
2019-02-23T09:17:22.162Z,1012.1
2019-02-23T09:18:22.157Z,1012.06
2019-02-23T09:19:22.150Z,1012.18
2019-02-23T09:20:28.874Z,1012.14
2019-02-23T09:21:22.136Z,1012.2
2019-02-23T09:22:22.139Z,1012.17
2019-02-23T09:23:22.129Z,1012.24
2019-02-23T09:24:22.128Z,1012.27
2019-02-23T09:25:22.116Z,1012.34
2019-02-23T09:26:22.108Z,1012.25
2019-02-23T09:27:22.100Z,1012.24
2019-02-23T09:28:22.111Z,1012.22
2019-02-23T09:29:22.088Z,1012.18
2019-02-23T09:30:22.083Z,1012.21
2019-02-23T09:31:22.073Z,1012.15
2019-02-23T09:32:22.066Z,1012.12
2019-02-23T09:33:22.063Z,1012.1
2019-02-23T09:34:22.054Z,1012.07
2019-02-23T09:35:22.047Z,1011.95
2019-02-23T09:36:22.041Z,1012
2019-02-23T09:37:22.033Z,1011.99
2019-02-23T09:38:22.042Z,1012
2019-02-23T09:39:22.020Z,1011.98
2019-02-23T09:40:22.022Z,1011.94
2019-02-23T09:41:22.022Z,1011.95
2019-02-23T09:42:21.999Z,1011.93
2019-02-23T09:43:21.996Z,1011.91
2019-02-23T09:44:21.985Z,1011.92
2019-02-23T09:45:21.979Z,1011.92
2019-02-23T09:46:21.974Z,1011.89
2019-02-23T09:47:21.968Z,1011.94
2019-02-23T09:48:21.961Z,1011.97
2019-02-23T09:49:21.954Z,1012.06
2019-02-23T09:50:21.947Z,1012.04
2019-02-23T09:51:21.941Z,1012.02
2019-02-23T09:52:21.938Z,1012.06
2019-02-23T09:53:21.930Z,1012
2019-02-23T09:54:21.921Z,1011.93
2019-02-23T09:55:21.983Z,1011.88
2019-02-23T09:56:21.911Z,1011.82
2019-02-23T09:57:21.904Z,1011.83
2019-02-23T09:58:21.940Z,1011.85
2019-02-23T09:59:21.897Z,1011.9
2019-02-23T10:00:21.883Z,1011.86
2019-02-23T10:01:21.887Z,1011.86
2019-02-23T10:02:21.873Z,1011.88
2019-02-23T10:03:21.873Z,1011.92
2019-02-23T10:04:21.925Z,1011.87
2019-02-23T10:05:21.854Z,1011.86
2019-02-23T10:06:21.848Z,1011.83
2019-02-23T10:07:21.843Z,1011.81
2019-02-23T10:08:21.841Z,1011.87
2019-02-23T10:09:21.844Z,1011.87
2019-02-23T10:10:21.828Z,1011.88
2019-02-23T10:11:21.818Z,1011.9
2019-02-23T10:12:21.811Z,1011.87
2019-02-23T10:13:21.806Z,1011.88
2019-02-23T10:14:21.804Z,1011.92
2019-02-23T10:15:21.794Z,1011.91
2019-02-23T10:16:21.788Z,1011.89
2019-02-23T10:17:21.785Z,1011.87
2019-02-23T10:18:21.781Z,1011.92
2019-02-23T10:19:21.772Z,1011.9
2019-02-23T10:20:21.766Z,1011.9
2019-02-23T10:21:21.759Z,1011.97
2019-02-23T10:22:21.751Z,1011.94
2019-02-23T10:23:22.413Z,1011.87
2019-02-23T10:24:21.789Z,1011.96
2019-02-23T10:25:21.738Z,1011.89
2019-02-23T10:26:21.729Z,1011.91
2019-02-23T10:27:21.845Z,1011.96
2019-02-23T10:28:21.731Z,1011.95
2019-02-23T10:29:21.713Z,1011.87
2019-02-23T10:30:21.707Z,1011.85
2019-02-23T10:31:21.708Z,1011.93
2019-02-23T10:32:21.696Z,1011.95
2019-02-23T10:33:21.691Z,1011.97
2019-02-23T10:34:21.685Z,1011.95
2019-02-23T10:35:21.682Z,1011.97
2019-02-23T10:36:21.672Z,1011.98
2019-02-23T10:37:21.666Z,1012.04
2019-02-23T10:38:21.664Z,1011.99
2019-02-23T10:39:21.658Z,1012.04
2019-02-23T10:40:21.653Z,1011.96
2019-02-23T10:41:21.647Z,1012.03
2019-02-23T10:42:21.645Z,1012.08
2019-02-23T10:43:21.637Z,1012.08
2019-02-23T10:44:21.628Z,1012.14
2019-02-23T10:45:21.623Z,1012.16
2019-02-23T10:46:21.620Z,1012.23
2019-02-23T10:47:21.614Z,1012.2
2019-02-23T10:48:21.607Z,1012.13
2019-02-23T10:49:21.605Z,1012.21
2019-02-23T10:50:21.596Z,1012.2
2019-02-23T10:51:21.596Z,1012.2
2019-02-23T10:52:21.584Z,1012.15
2019-02-23T10:53:21.581Z,1012.04
2019-02-23T10:54:21.575Z,1012.14
2019-02-23T10:55:21.569Z,1012.22
2019-02-23T10:56:21.565Z,1012.25
2019-02-23T10:57:21.573Z,1012.27
2019-02-23T10:58:21.555Z,1012.23
2019-02-23T10:59:21.551Z,1012.23
2019-02-23T11:00:21.545Z,1012.21
2019-02-23T11:01:21.537Z,1012.12
2019-02-23T11:02:21.532Z,1012.06
2019-02-23T11:03:21.526Z,1012.07
2019-02-23T11:04:21.599Z,1012.1
2019-02-23T11:05:21.519Z,1012.06
2019-02-23T11:06:21.513Z,1012.08
2019-02-23T11:07:21.507Z,1012.08
2019-02-23T11:08:21.498Z,1012.03
2019-02-23T11:09:21.496Z,1012.01
2019-02-23T11:10:21.489Z,1011.89
2019-02-23T11:11:21.481Z,1011.86
2019-02-23T11:12:21.485Z,1011.76
2019-02-23T11:13:21.486Z,1011.74
2019-02-23T11:14:21.489Z,1011.74
2019-02-23T11:15:21.470Z,1011.76
2019-02-23T11:16:21.457Z,1011.74
2019-02-23T11:17:21.452Z,1011.69
2019-02-23T11:18:21.444Z,1011.62
2019-02-23T11:19:21.439Z,1011.6
2019-02-23T11:20:21.435Z,1011.53
2019-02-23T11:21:21.430Z,1011.56
2019-02-23T11:22:21.428Z,1011.56
2019-02-23T11:23:21.417Z,1011.54
2019-02-23T11:24:21.569Z,1011.45
2019-02-23T11:25:21.417Z,1011.35
2019-02-23T11:26:21.400Z,1011.35
2019-02-23T11:27:21.397Z,1011.21
2019-02-23T11:28:21.393Z,1011.17
2019-02-23T11:29:21.387Z,1011.17
2019-02-23T11:30:21.383Z,1011.2
2019-02-23T11:31:21.378Z,1011.19
2019-02-23T11:32:21.370Z,1011.13
2019-02-23T11:33:21.367Z,1011.19
2019-02-23T11:34:21.360Z,1011.15
2019-02-23T11:35:21.354Z,1011.19
2019-02-23T11:36:21.351Z,1011.18
2019-02-23T11:37:21.345Z,1011.19
2019-02-23T11:38:21.339Z,1011.17
2019-02-23T11:39:21.336Z,1011.23
2019-02-23T11:40:23.390Z,1011.26
2019-02-23T11:41:21.324Z,1011.21
2019-02-23T11:42:21.317Z,1011.17
2019-02-23T11:43:21.316Z,1011.17
2019-02-23T11:44:21.307Z,1011.16
2019-02-23T11:45:21.303Z,1011.12
2019-02-23T11:46:21.297Z,1011.14
2019-02-23T11:47:21.305Z,1011.17
2019-02-23T11:48:21.288Z,1011.13
2019-02-23T11:49:21.287Z,1011.12
2019-02-23T11:50:21.276Z,1011.09
2019-02-23T11:51:21.272Z,1011.09
2019-02-23T11:52:21.274Z,1011.07
2019-02-23T11:53:21.261Z,1011.09
2019-02-23T11:54:21.258Z,1011.06
2019-02-23T11:55:21.251Z,1010.99
2019-02-23T11:56:21.246Z,1010.98
2019-02-23T11:57:21.241Z,1010.95
2019-02-23T11:58:21.237Z,1010.92
2019-02-23T11:59:21.234Z,1010.9
2019-02-23T12:00:21.221Z,1010.9
2019-02-23T12:01:21.217Z,1010.9
2019-02-23T12:02:21.227Z,1010.89
2019-02-23T12:03:21.210Z,1010.85
2019-02-23T12:04:21.210Z,1010.88
2019-02-23T12:05:21.205Z,1010.92
2019-02-23T12:06:21.195Z,1010.97
2019-02-23T12:07:21.193Z,1010.98
2019-02-23T12:08:21.179Z,1010.97